createdAt,value
2024-02-08T00:03:20.743Z,44.9
2024-02-08T00:08:39.032Z,44.1
2024-02-08T00:13:57.383Z,44.2
2024-02-08T00:19:15.642Z,44.7
2024-02-08T00:24:34.001Z,45.2
2024-02-08T00:29:52.366Z,45
2024-02-08T00:35:12.849Z,45.1
2024-02-08T00:40:31.641Z,45
2024-02-08T00:45:49.983Z,45.2
2024-02-08T00:51:08.660Z,44.3
2024-02-08T00:56:27.155Z,44.7
2024-02-08T01:01:45.518Z,45.9
2024-02-08T01:07:03.736Z,45.3
2024-02-08T01:12:06.608Z,44.8
2024-02-08T01:17:24.957Z,45
2024-02-08T01:22:43.428Z,45.7
2024-02-08T01:28:01.695Z,45.9
2024-02-08T01:33:20.024Z,46
2024-02-08T01:38:38.362Z,45.8
2024-02-08T01:43:56.803Z,45.2
2024-02-08T01:49:15.381Z,46.2
2024-02-08T01:54:33.611Z,45.7
2024-02-08T01:59:51.586Z,45.8
2024-02-08T02:05:09.913Z,45.8
2024-02-08T02:10:28.277Z,46.3
2024-02-08T02:15:46.763Z,45.8
2024-02-08T02:21:05.099Z,46.1
2024-02-08T02:26:23.735Z,45.3
2024-02-08T02:31:42.692Z,46
2024-02-08T02:37:00.865Z,46.5
2024-02-08T02:42:19.015Z,45.3
2024-02-08T02:47:37.467Z,46.6
2024-02-08T02:52:56.046Z,46.1
2024-02-08T02:58:14.528Z,46.4
2024-02-08T03:03:32.942Z,46.8
2024-02-08T03:08:51.973Z,46.3
2024-02-08T03:14:10.471Z,46
2024-02-08T03:19:28.995Z,46.8
2024-02-08T03:24:47.401Z,46.4
2024-02-08T03:30:05.522Z,46.9
2024-02-08T03:35:24.121Z,46.9
2024-02-08T03:40:42.252Z,46.9
2024-02-08T03:46:00.757Z,47
2024-02-08T03:51:18.869Z,46.5
2024-02-08T03:56:36.877Z,46.9
2024-02-08T04:01:55.113Z,47.3
2024-02-08T04:07:13.268Z,46.2
2024-02-08T04:12:31.832Z,46.3
2024-02-08T04:17:50.454Z,47
2024-02-08T04:23:09.226Z,46.9
2024-02-08T04:28:27.518Z,46.2
2024-02-08T04:33:45.961Z,47.3
2024-02-08T04:39:04.351Z,45.5
2024-02-08T04:44:22.688Z,46.4
2024-02-08T04:49:41.081Z,46.2
2024-02-08T04:54:59.361Z,45.8
2024-02-08T05:00:17.949Z,45.6
2024-02-08T05:05:36.453Z,45.9
2024-02-08T05:10:54.701Z,46.3
2024-02-08T05:16:12.944Z,45.5
2024-02-08T05:21:31.466Z,45.9
2024-02-08T05:26:49.844Z,46
2024-02-08T05:32:08.009Z,45.3
2024-02-08T05:37:26.900Z,45.8
2024-02-08T05:42:45.486Z,45.5
2024-02-08T05:48:04.304Z,40.9
2024-02-08T05:53:22.834Z,41.1
2024-02-08T05:58:41.235Z,42
2024-02-08T06:03:59.799Z,41.8
2024-02-08T06:09:18.030Z,42.9
2024-02-08T06:14:36.354Z,42.5
2024-02-08T06:19:55.185Z,43.3
2024-02-08T06:25:13.532Z,43.7
2024-02-08T06:30:31.713Z,43.3
2024-02-08T06:35:50.025Z,43.7
2024-02-08T06:41:08.370Z,43.7
2024-02-08T06:46:26.901Z,43.3
2024-02-08T06:51:45.553Z,43
2024-02-08T06:57:03.874Z,43.2
2024-02-08T07:02:22.309Z,43.6
2024-02-08T07:07:41.314Z,43.1
2024-02-08T07:12:59.714Z,43.1
2024-02-08T07:18:18.354Z,43
2024-02-08T07:23:36.553Z,43.8
2024-02-08T07:28:55.026Z,43.3
2024-02-08T07:34:13.610Z,43.2
2024-02-08T07:39:32.527Z,43.9
2024-02-08T07:44:50.874Z,43.7
2024-02-08T07:50:09.512Z,43.1
2024-02-08T07:55:28.660Z,43.1
2024-02-08T08:00:46.982Z,43.6
2024-02-08T08:06:05.231Z,43
2024-02-08T08:11:24.334Z,43.5
2024-02-08T08:16:42.619Z,43.1
2024-02-08T08:22:01.245Z,43.6
2024-02-08T08:27:20.922Z,43.5
2024-02-08T08:32:39.330Z,43.5
2024-02-08T08:37:57.811Z,42.9
2024-02-08T08:43:16.485Z,42.8
2024-02-08T08:48:35.865Z,43.6
2024-02-08T08:53:53.957Z,43.2
2024-02-08T08:59:12.327Z,43.5
2024-02-08T09:04:30.918Z,42.7
2024-02-08T09:09:49.413Z,43.1
2024-02-08T09:15:07.399Z,42.6
2024-02-08T09:20:25.720Z,42.7
2024-02-08T09:25:43.896Z,43.1
2024-02-08T09:31:02.378Z,43.2
2024-02-08T09:36:20.748Z,42.7
2024-02-08T09:41:39.117Z,42.4
2024-02-08T09:46:57.795Z,42.6
2024-02-08T09:52:16.694Z,43.1
2024-02-08T09:57:35.146Z,43.2
2024-02-08T10:02:53.307Z,42.5
2024-02-08T10:08:11.946Z,42.4
2024-02-08T10:13:30.687Z,42.6
2024-02-08T10:18:49.325Z,43.1
2024-02-08T10:24:07.676Z,43.2
2024-02-08T10:29:26.019Z,42.5
2024-02-08T10:34:45.033Z,42.5
2024-02-08T10:40:03.390Z,42.9
2024-02-08T10:45:21.806Z,41.3
2024-02-08T10:50:40.156Z,40.7
2024-02-08T10:55:58.493Z,39
2024-02-08T11:01:18.098Z,40
2024-02-08T11:06:36.730Z,38.6
2024-02-08T11:11:55.044Z,37.9
2024-02-08T11:17:13.660Z,38.6
2024-02-08T11:22:32.838Z,38.7
2024-02-08T11:27:51.659Z,39
2024-02-08T11:33:10.357Z,38.2
2024-02-08T11:38:28.854Z,41
2024-02-08T11:43:46.893Z,40.4
2024-02-08T11:49:05.520Z,39.6
2024-02-08T11:54:23.561Z,39.7
2024-02-08T11:59:42.069Z,38.7
2024-02-08T12:05:01.040Z,37.2
2024-02-08T12:10:19.579Z,35.7
2024-02-08T12:15:37.934Z,38.6
2024-02-08T12:20:56.118Z,37.2
2024-02-08T12:26:14.447Z,37.9
2024-02-08T12:31:36.286Z,36.8
2024-02-08T12:36:54.889Z,36.3
2024-02-08T12:42:13.402Z,36.8
2024-02-08T12:47:32.113Z,37.3
2024-02-08T12:52:50.289Z,37.3
2024-02-08T12:58:08.504Z,36.1
2024-02-08T13:03:26.674Z,34.4
2024-02-08T13:08:45.004Z,36.7
2024-02-08T13:14:03.250Z,37.2
2024-02-08T13:19:21.664Z,37.4
2024-02-08T13:24:40.065Z,37.7
2024-02-08T13:29:58.226Z,36.7
2024-02-08T13:35:16.624Z,37.3
2024-02-08T13:40:35.238Z,37.3
2024-02-08T13:45:57.326Z,37.2
2024-02-08T13:51:15.869Z,37.1
2024-02-08T13:56:34.249Z,35.3
2024-02-08T14:01:37.196Z,35.2
2024-02-08T14:06:55.287Z,35
2024-02-08T14:12:13.303Z,36.9
2024-02-08T14:17:31.491Z,37.4
2024-02-08T14:22:49.865Z,34.3
2024-02-08T14:28:08.271Z,34.7
2024-02-08T14:33:26.882Z,34.2
2024-02-08T14:38:45.021Z,33.6
2024-02-08T14:44:03.499Z,32.9
2024-02-08T14:49:30.115Z,34.4
2024-02-08T14:54:48.981Z,33.8
2024-02-08T15:00:07.381Z,34.6
2024-02-08T15:05:25.820Z,34.3
2024-02-08T15:10:45.129Z,34.3
2024-02-08T15:16:04.012Z,35.2
2024-02-08T15:21:22.029Z,33.9
2024-02-08T15:26:40.481Z,34.4
2024-02-08T15:31:58.864Z,34.2
2024-02-08T15:37:17.101Z,34.4
2024-02-08T15:42:35.478Z,34.7
2024-02-08T15:47:53.681Z,33.7
2024-02-08T15:53:11.926Z,34.5
2024-02-08T15:58:30.520Z,34.2
2024-02-08T16:03:49.668Z,34.7
2024-02-08T16:09:08.105Z,36.1
2024-02-08T16:14:26.809Z,36.2
2024-02-08T16:19:50.678Z,36.6
2024-02-08T16:25:08.900Z,36.8
2024-02-08T16:30:27.265Z,37.1
2024-02-08T16:35:46.052Z,36.7
2024-02-08T16:41:04.413Z,37.3
2024-02-08T16:46:23.151Z,37
2024-02-08T16:51:41.549Z,38.1
2024-02-08T16:56:59.877Z,37.6
2024-02-08T17:02:18.288Z,39
2024-02-08T17:07:36.932Z,38.4
2024-02-08T17:12:55.173Z,39
2024-02-08T17:18:13.502Z,38.4
2024-02-08T17:23:31.622Z,39.3
2024-02-08T17:28:49.735Z,38.6
2024-02-08T17:34:08.111Z,38.7
2024-02-08T17:39:27.170Z,39.6
2024-02-08T17:44:45.727Z,39
2024-02-08T17:50:06.888Z,39.7
2024-02-08T17:55:25.317Z,39.6
2024-02-08T18:00:43.588Z,39.6
2024-02-08T18:06:02.502Z,39.2
2024-02-08T18:11:20.826Z,38.9
2024-02-08T18:16:39.529Z,39.7
2024-02-08T18:21:58.089Z,39.9
2024-02-08T18:27:19.584Z,40.1
2024-02-08T18:32:37.799Z,39.4
2024-02-08T18:37:56.220Z,39.5
2024-02-08T18:43:14.584Z,40.5
2024-02-08T18:48:33.434Z,40.6
2024-02-08T18:53:57.224Z,40.2
2024-02-08T18:59:16.018Z,40.2
2024-02-08T19:04:34.350Z,40.3
2024-02-08T19:09:52.922Z,41.3
2024-02-08T19:15:11.245Z,40.5
2024-02-08T19:20:29.957Z,40.8
2024-02-08T19:25:51.293Z,40.4
2024-02-08T19:31:09.747Z,40.8
2024-02-08T19:36:28.075Z,41.5
2024-02-08T19:41:46.023Z,41.6
2024-02-08T19:47:11.364Z,40.9
2024-02-08T19:52:29.706Z,41.7
2024-02-08T19:57:48.100Z,41
2024-02-08T20:03:06.287Z,41
2024-02-08T20:08:24.859Z,41.7
2024-02-08T20:13:43.217Z,41.7
2024-02-08T20:19:01.804Z,40.8
2024-02-08T20:24:22.867Z,41.2
2024-02-08T20:29:40.806Z,42.1
2024-02-08T20:34:59.198Z,41.8
2024-02-08T20:40:17.882Z,41.2
2024-02-08T20:45:36.100Z,41.2
2024-02-08T20:50:54.127Z,41.3
2024-02-08T20:56:12.447Z,41.3
2024-02-08T21:01:31.010Z,41.4
2024-02-08T21:06:49.653Z,41.3
2024-02-08T21:12:07.954Z,41.4
2024-02-08T21:17:26.460Z,41.5
2024-02-08T21:22:44.875Z,41.7
2024-02-08T21:28:06.031Z,41.9
2024-02-08T21:33:24.703Z,41.9
2024-02-08T21:38:43.257Z,41.7
2024-02-08T21:44:01.589Z,42.8
2024-02-08T21:49:24.892Z,42.7
2024-02-08T21:54:43.014Z,42
2024-02-08T22:00:01.328Z,42
2024-02-08T22:05:19.752Z,41.9
2024-02-08T22:10:38.145Z,42.7
2024-02-08T22:15:56.384Z,42.1
2024-02-08T22:21:14.690Z,42
2024-02-08T22:26:32.853Z,42.8
2024-02-08T22:31:51.040Z,42.8
2024-02-08T22:36:53.774Z,42.2
2024-02-08T22:42:12.100Z,43
2024-02-08T22:47:30.363Z,43
2024-02-08T22:52:48.481Z,42.2
2024-02-08T22:58:06.663Z,43
2024-02-08T23:03:24.837Z,43
2024-02-08T23:08:42.966Z,43.1
2024-02-08T23:14:00.918Z,42.3
2024-02-08T23:19:19.542Z,42.4
2024-02-08T23:24:37.766Z,42.2
2024-02-08T23:29:56.264Z,43
2024-02-08T23:35:14.700Z,42.7
2024-02-08T23:40:32.976Z,43.3
2024-02-08T23:45:35.380Z,43.3
2024-02-08T23:50:53.880Z,43.4
2024-02-08T23:56:12.013Z,42.8
